Time;durP1;ratioP1;P1;durP2;ratioP2;P2;SDS_P1;SDS_P2;PMS_P1;PMS_P2;Temp;Humidity;BMP_temperature;BMP_pressure;BME280_temperature;BME280_humidity;BME280_pressure;Samples;Min_cycle;Max_cycle;Signal;HPM_P1;HPM_P2
2021/12/27 00:01:15;;;;;;;1.63;1.52;;;;;;;-5.14;74.38;100625.59;5032700;28;20623;-75
2021/12/27 00:03:42;;;;;;;0.40;0.30;;;;;;;-5.19;74.13;100620.09;5033127;28;20200;-75
2021/12/27 00:06:10;;;;;;;0.40;0.30;;;;;;;-5.19;75.09;100628.00;5033017;28;20227;-75
2021/12/27 00:08:39;;;;;;;0.40;0.30;;;;;;;-5.23;74.73;100621.50;5033055;28;20192;-75
2021/12/27 00:11:06;;;;;;;0.40;0.30;;;;;;;-5.12;75.19;100622.78;5032925;28;20452;-75
2021/12/27 00:13:33;;;;;;;0.40;0.30;;;;;;;-5.17;74.58;100620.72;5033077;28;20458;-75
2021/12/27 00:15:59;;;;;;;0.40;0.30;;;;;;;-5.16;74.21;100621.53;5032118;28;20689;-75
2021/12/27 00:18:26;;;;;;;0.40;0.30;;;;;;;-5.23;74.44;100618.84;5035943;28;20220;-75
2021/12/27 00:20:52;;;;;;;0.40;0.30;;;;;;;-5.22;74.71;100611.78;5036756;28;20678;-75
2021/12/27 00:23:20;;;;;;;0.40;0.30;;;;;;;-5.16;74.03;100617.06;5036808;28;20205;-76
2021/12/27 00:25:46;;;;;;;0.40;0.30;;;;;;;-5.10;74.37;100616.28;5036388;28;20603;-75
2021/12/27 00:28:13;;;;;;;0.40;0.30;;;;;;;-5.12;75.05;100606.94;5036817;28;20213;-75
2021/12/27 00:30:40;;;;;;;0.40;0.40;;;;;;;-5.03;74.36;100610.22;5036519;28;20578;-75
2021/12/27 00:33:08;;;;;;;0.73;0.73;;;;;;;-5.12;73.98;100615.66;5036855;28;20224;-75
2021/12/27 00:35:36;;;;;;;0.40;0.30;;;;;;;-5.13;73.64;100602.69;5036814;28;20232;-75
2021/12/27 00:38:03;;;;;;;0.40;0.30;;;;;;;-5.13;73.67;100594.75;5036066;28;20214;-75
2021/12/27 00:40:31;;;;;;;0.40;0.30;;;;;;;-5.06;73.59;100600.84;5036669;28;20201;-76
2021/12/27 00:42:57;;;;;;;0.40;0.30;;;;;;;-5.07;73.57;100596.59;5036310;28;20208;-75
2021/12/27 00:45:24;;;;;;;23.38;21.58;;;;;;;-5.04;73.04;100595.41;5035982;28;20199;-75
2021/12/27 00:47:51;;;;;;;1.88;1.77;;;;;;;-5.01;72.94;100593.16;5036349;28;20217;-75
2021/12/27 00:50:18;;;;;;;0.40;0.30;;;;;;;-4.92;72.44;100591.94;5036463;28;20204;-75
2021/12/27 00:52:46;;;;;;;0.40;0.30;;;;;;;-4.99;72.70;100585.84;5036473;28;20211;-75
2021/12/27 00:55:15;;;;;;;0.40;0.30;;;;;;;-4.99;72.67;100591.13;5036291;28;20196;-75
2021/12/27 00:57:42;;;;;;;0.40;0.40;;;;;;;-4.97;72.88;100583.81;5036206;28;20213;-75
2021/12/27 01:00:12;;;;;;;0.40;0.30;;;;;;;-4.97;73.17;100580.38;5036220;28;20231;-75
2021/12/27 01:02:40;;;;;;;10.07;9.50;;;;;;;-4.98;73.14;100586.66;5016520;28;20454;-75
2021/12/27 01:05:07;;;;;;;0.60;0.60;;;;;;;-4.99;73.63;100577.94;5016571;28;20205;-75
2021/12/27 01:07:35;;;;;;;0.40;0.30;;;;;;;-4.97;75.05;100572.44;5017346;28;20217;-75
2021/12/27 01:10:16;;;;;;;0.40;0.30;;;;;;;-4.95;74.04;100568.59;5036166;28;20222;-75
2021/12/27 01:13:01;;;;;;;0.40;0.30;;;;;;;-4.93;72.76;100569.22;5036062;28;20188;-76
2021/12/27 01:15:46;;;;;;;0.40;0.30;;;;;;;-4.94;72.96;100566.78;5035953;28;20196;-75
2021/12/27 01:18:14;;;;;;;0.40;0.30;;;;;;;-4.96;72.43;100556.38;5035836;28;20232;-76
2021/12/27 01:20:40;;;;;;;0.40;0.30;;;;;;;-4.92;73.36;100554.97;5035854;28;20193;-75
2021/12/27 01:23:07;;;;;;;0.40;0.30;;;;;;;-4.89;73.09;100557.22;5035998;28;20211;-76
2021/12/27 01:25:34;;;;;;;0.40;0.30;;;;;;;-4.83;73.22;100542.41;5035460;28;20204;-75
2021/12/27 01:28:02;;;;;;;0.40;0.30;;;;;;;-4.90;73.01;100542.41;5035201;28;20220;-76
2021/12/27 01:30:30;;;;;;;0.40;0.30;;;;;;;-4.82;73.17;100544.03;5035804;28;20450;-76
2021/12/27 01:33:00;;;;;;;0.40;0.30;;;;;;;-4.79;72.97;100542.81;5035389;28;20210;-75
2021/12/27 01:35:26;;;;;;;0.40;0.30;;;;;;;-4.75;72.97;100544.03;5036137;28;20325;-76
2021/12/27 01:37:54;;;;;;;0.40;0.30;;;;;;;-4.78;73.84;100541.78;5020073;28;20479;-76
2021/12/27 01:40:25;;;;;;;0.40;0.30;;;;;;;-4.84;74.28;100544.22;5015673;28;20289;-76
2021/12/27 01:43:09;;;;;;;0.40;0.30;;;;;;;-4.78;73.98;100547.06;5032226;28;20188;-76
2021/12/27 01:45:37;;;;;;;0.40;0.30;;;;;;;-4.73;73.51;100534.91;5026678;28;20211;-76
2021/12/27 01:48:06;;;;;;;0.40;0.30;;;;;;;-4.75;72.43;100534.28;5035273;28;20244;-76
2021/12/27 01:50:32;;;;;;;0.40;0.30;;;;;;;-4.73;72.58;100534.09;5035178;28;20275;-76
2021/12/27 01:52:59;;;;;;;0.40;0.35;;;;;;;-4.71;73.29;100540.78;5034974;28;20662;-76
2021/12/27 01:55:26;;;;;;;0.40;0.30;;;;;;;-4.71;72.19;100551.38;5035195;28;20212;-76
2021/12/27 01:57:52;;;;;;;0.40;0.30;;;;;;;-4.68;72.27;100542.22;5035101;28;20254;-76
2021/12/27 02:00:20;;;;;;;0.40;0.30;;;;;;;-4.69;71.91;100537.94;5035064;28;20216;-75
2021/12/27 02:02:47;;;;;;;0.40;0.30;;;;;;;-4.71;72.29;100545.28;5034952;28;20488;-75
2021/12/27 02:05:15;;;;;;;0.40;0.30;;;;;;;-4.70;71.79;100542.41;5034939;28;20682;-76
2021/12/27 02:07:42;;;;;;;0.40;0.30;;;;;;;-4.69;72.52;100543.22;5027021;28;20235;-75
2021/12/27 02:10:11;;;;;;;0.40;0.30;;;;;;;-4.65;72.46;100536.53;5034988;28;20435;-76
2021/12/27 02:12:37;;;;;;;0.40;0.30;;;;;;;-4.64;72.14;100515.19;5034616;28;20223;-75
2021/12/27 02:15:08;;;;;;;0.40;0.30;;;;;;;-4.69;71.94;100506.25;5034800;28;20208;-76
2021/12/27 02:17:36;;;;;;;0.40;0.30;;;;;;;-4.69;72.80;100501.78;5034585;28;20227;-76
2021/12/27 02:20:06;;;;;;;0.40;0.30;;;;;;;-4.64;72.51;100494.06;5034509;28;20227;-75
2021/12/27 02:22:36;;;;;;;0.40;0.30;;;;;;;-4.63;72.58;100503.63;5034698;28;20201;-75
2021/12/27 02:25:05;;;;;;;0.40;0.30;;;;;;;-4.65;73.25;100500.38;5034628;28;20221;-76
2021/12/27 02:27:32;;;;;;;0.40;0.30;;;;;;;-4.61;72.40;100501.56;5034720;28;20251;-76
2021/12/27 02:29:58;;;;;;;0.40;0.30;;;;;;;-4.65;71.60;100497.72;5034437;28;20196;-76
2021/12/27 02:32:25;;;;;;;0.40;0.30;;;;;;;-4.61;71.67;100508.69;5034553;28;20211;-75
2021/12/27 02:34:51;;;;;;;1.92;1.83;;;;;;;-4.58;72.45;100508.28;5034364;28;20203;-75
2021/12/27 02:37:19;;;;;;;0.40;0.30;;;;;;;-4.51;73.18;100503.81;5034173;28;20235;-75
2021/12/27 02:39:46;;;;;;;0.40;0.30;;;;;;;-4.52;72.16;100504.81;5025880;28;20567;-76
2021/12/27 02:42:17;;;;;;;0.40;0.30;;;;;;;-4.39;72.44;100511.94;5034227;28;20436;-75
2021/12/27 02:44:44;;;;;;;0.40;0.30;;;;;;;-4.36;72.04;100503.59;5034032;28;20192;-75
2021/12/27 02:47:10;;;;;;;0.40;0.30;;;;;;;-4.37;71.82;100509.91;5034138;28;20224;-75
2021/12/27 02:49:37;;;;;;;0.40;0.30;;;;;;;-4.40;70.87;100499.75;5034383;28;20212;-75
2021/12/27 02:52:04;;;;;;;0.40;0.30;;;;;;;-4.32;71.69;100505.63;5034072;28;20570;-75
2021/12/27 02:54:31;;;;;;;0.50;0.38;;;;;;;-4.26;70.84;100490.75;5033640;28;20689;-75
2021/12/27 02:56:58;;;;;;;0.40;0.40;;;;;;;-4.29;70.43;100483.28;5034167;28;20256;-75
2021/12/27 02:59:24;;;;;;;0.40;0.30;;;;;;;-4.25;70.25;100471.25;5033558;28;20823;-75
2021/12/27 03:01:51;;;;;;;0.40;0.30;;;;;;;-4.25;70.95;100471.25;5034111;28;20450;-75
2021/12/27 03:04:17;;;;;;;0.40;0.30;;;;;;;-4.31;71.23;100472.88;5033734;28;20200;-75
2021/12/27 03:06:44;;;;;;;0.40;0.30;;;;;;;-4.28;71.13;100476.16;5033973;28;20482;-76
2021/12/27 03:09:10;;;;;;;0.50;0.50;;;;;;;-4.31;71.18;100488.75;5033689;28;20454;-75
2021/12/27 03:11:38;;;;;;;0.40;0.30;;;;;;;-4.29;70.49;100488.56;5033573;28;20949;-75
2021/12/27 03:14:05;;;;;;;0.40;0.30;;;;;;;-4.24;69.96;100470.25;5034247;28;20682;-75
2021/12/27 03:16:32;;;;;;;0.40;0.30;;;;;;;-4.22;69.99;100464.72;5044152;22;21022;-76
2021/12/27 03:18:58;;;;;;;1.47;1.47;;;;;;;-4.24;70.25;100464.94;5033872;28;20459;-75
2021/12/27 03:21:26;;;;;;;0.40;0.30;;;;;;;-4.24;70.96;100461.50;5033493;28;20458;-75
2021/12/27 03:23:53;;;;;;;0.95;0.95;;;;;;;-4.27;71.48;100467.19;5033777;28;20447;-75
2021/12/27 03:26:20;;;;;;;0.40;0.30;;;;;;;-4.18;71.15;100464.09;5064557;28;20222;-75
2021/12/27 03:28:48;;;;;;;0.40;0.30;;;;;;;-4.19;71.31;100461.69;5073449;28;20202;-75
2021/12/27 03:31:17;;;;;;;0.40;0.30;;;;;;;-4.18;71.12;100455.38;5073598;28;20206;-75
2021/12/27 03:33:43;;;;;;;4.30;4.10;;;;;;;-4.20;70.25;100458.22;5065510;28;20450;-75
2021/12/27 03:36:10;;;;;;;0.88;0.88;;;;;;;-4.18;70.32;100455.38;5053252;28;20450;-75
2021/12/27 03:38:39;;;;;;;0.40;0.30;;;;;;;-4.20;70.13;100452.13;5053386;28;20306;-75
2021/12/27 03:41:08;;;;;;;0.40;0.30;;;;;;;-4.19;70.60;100443.19;5053298;28;20230;-76
2021/12/27 03:43:35;;;;;;;16.50;15.63;;;;;;;-4.20;71.64;100436.28;5053511;28;20931;-76
2021/12/27 03:46:03;;;;;;;0.40;0.30;;;;;;;-4.18;72.02;100439.50;5061420;28;20445;-75
2021/12/27 03:48:30;;;;;;;0.40;0.30;;;;;;;-4.13;71.39;100429.09;5053106;28;20718;-76
2021/12/27 03:50:57;;;;;;;4.53;4.33;;;;;;;-4.11;71.60;100435.03;5074089;28;20460;-76
2021/12/27 03:53:23;;;;;;;0.40;0.30;;;;;;;-4.10;71.54;100432.16;5073548;28;20457;-76
2021/12/27 03:55:50;;;;;;;0.40;0.30;;;;;;;-4.06;70.88;100430.72;5057482;28;20200;-76
2021/12/27 03:58:26;;;;;;;0.40;0.30;;;;;;;-4.03;70.83;100432.13;5057295;28;20236;-76
2021/12/27 04:01:02;;;;;;;0.40;0.30;;;;;;;-4.05;71.20;100426.25;5057172;28;20755;-76
2021/12/27 04:03:31;;;;;;;0.60;0.57;;;;;;;-4.06;70.89;100422.78;5057465;28;20422;-76
2021/12/27 04:05:58;;;;;;;0.40;0.30;;;;;;;-3.99;72.36;100417.47;5065737;28;20449;-76
2021/12/27 04:08:25;;;;;;;0.40;0.30;;;;;;;-3.92;71.79;100407.66;5077477;28;20307;-75
2021/12/27 04:10:53;;;;;;;0.40;0.30;;;;;;;-3.91;71.45;100409.28;5074866;28;20452;-75
2021/12/27 04:13:21;;;;;;;2.50;2.40;;;;;;;-3.93;71.03;100414.00;5077150;28;20460;-76
2021/12/27 04:15:48;;;;;;;0.40;0.30;;;;;;;-3.95;70.32;100405.44;5077033;28;20529;-76
2021/12/27 04:18:15;;;;;;;0.40;0.30;;;;;;;-3.89;70.22;100398.53;5076913;28;20487;-76
2021/12/27 04:20:43;;;;;;;1.90;1.80;;;;;;;-3.84;70.93;100398.69;5077050;28;20485;-76
2021/12/27 04:23:09;;;;;;;0.40;0.30;;;;;;;-3.85;71.16;100403.19;5074796;28;20445;-76
2021/12/27 04:25:36;;;;;;;0.40;0.30;;;;;;;-3.83;71.02;100395.81;5056620;28;20954;-75
2021/12/27 04:28:03;;;;;;;0.50;0.30;;;;;;;-3.85;71.33;100397.03;5057071;28;20475;-76
2021/12/27 04:30:30;;;;;;;0.40;0.40;;;;;;;-3.83;71.16;100395.81;5056904;28;20445;-75
2021/12/27 04:32:56;;;;;;;0.40;0.30;;;;;;;-3.79;70.77;100401.50;5056418;28;20673;-76
2021/12/27 04:35:23;;;;;;;0.50;0.50;;;;;;;-3.74;71.47;100395.59;5056741;28;20444;-76
2021/12/27 04:37:51;;;;;;;0.63;0.63;;;;;;;-3.81;70.76;100395.59;5056689;28;20470;-76
2021/12/27 04:40:20;;;;;;;0.40;0.30;;;;;;;-3.76;71.09;100410.84;5056780;28;20706;-75
2021/12/27 04:42:51;;;;;;;1.63;1.53;;;;;;;-3.78;71.42;100412.91;5056641;28;20446;-76
2021/12/27 04:45:17;;;;;;;0.40;0.30;;;;;;;-3.73;70.77;100415.72;5056296;28;20415;-75
2021/12/27 04:47:44;;;;;;;0.40;0.30;;;;;;;-3.74;70.23;100419.41;5056393;28;20469;-75
2021/12/27 04:50:11;;;;;;;0.40;0.30;;;;;;;-3.73;70.22;100410.44;5056499;28;20453;-76
2021/12/27 04:52:39;;;;;;;1.67;1.57;;;;;;;-3.71;70.83;100401.28;5056443;28;20441;-76
2021/12/27 04:55:07;;;;;;;0.40;0.30;;;;;;;-3.73;71.20;100394.56;5056543;28;20438;-76
2021/12/27 04:57:34;;;;;;;0.40;0.30;;;;;;;-3.78;70.87;100386.44;5056742;28;20465;-76
2021/12/27 05:00:01;;;;;;;0.40;0.30;;;;;;;-3.73;70.97;100381.31;5075671;28;20487;-76
2021/12/27 05:02:27;;;;;;;1.10;1.10;;;;;;;-3.76;70.92;100389.69;5055755;28;20943;-76
2021/12/27 05:04:54;;;;;;;0.40;0.40;;;;;;;-3.75;70.77;100373.59;5073001;28;20445;-76
2021/12/27 05:07:20;;;;;;;0.40;0.40;;;;;;;-3.83;71.03;100369.38;5075919;28;20816;-76
2021/12/27 05:09:47;;;;;;;0.50;0.50;;;;;;;-3.81;71.10;100370.00;5075945;28;20449;-76
2021/12/27 05:12:15;;;;;;;1.23;1.23;;;;;;;-3.78;71.75;100362.63;5076007;28;20801;-76
2021/12/27 05:14:41;;;;;;;4.10;3.90;;;;;;;-3.74;71.77;100369.94;5075824;28;20438;-76
2021/12/27 05:17:07;;;;;;;0.40;0.30;;;;;;;-3.67;71.99;100373.38;5075619;28;20472;-75
2021/12/27 05:19:34;;;;;;;0.40;0.30;;;;;;;-3.70;71.74;100375.63;5058884;28;20450;-75
2021/12/27 05:22:00;;;;;;;0.40;0.30;;;;;;;-3.71;72.42;100372.16;5056080;28;20441;-75
2021/12/27 05:24:28;;;;;;;2.30;2.20;;;;;;;-3.63;71.71;100365.78;5056449;28;20446;-76
2021/12/27 05:26:55;;;;;;;0.70;0.70;;;;;;;-3.69;72.24;100361.34;5070431;28;21025;-76
2021/12/27 05:29:23;;;;;;;0.40;0.30;;;;;;;-3.65;71.24;100362.56;5070716;28;20442;-76
2021/12/27 05:31:49;;;;;;;0.40;0.30;;;;;;;-3.60;71.34;100365.38;5055685;28;20454;-76
2021/12/27 05:34:16;;;;;;;0.40;0.30;;;;;;;-3.65;70.96;100363.38;5055680;28;20438;-76
2021/12/27 05:36:43;;;;;;;0.73;0.73;;;;;;;-3.69;72.08;100361.34;5055613;28;20466;-76
2021/12/27 05:39:10;;;;;;;0.40;0.30;;;;;;;-3.66;72.92;100363.59;5055551;28;20442;-75
2021/12/27 05:41:36;;;;;;;5.13;4.93;;;;;;;-3.60;72.61;100346.84;5055786;28;20473;-75
2021/12/27 05:44:03;;;;;;;18.07;17.20;;;;;;;-3.59;72.41;100351.09;5055037;28;20442;-76
2021/12/27 05:46:31;;;;;;;0.40;0.30;;;;;;;-3.57;73.30;100357.00;5055382;28;20836;-76
2021/12/27 05:48:58;;;;;;;0.40;0.30;;;;;;;-3.48;73.04;100361.03;5055419;28;20442;-76
2021/12/27 05:51:24;;;;;;;2.20;2.10;;;;;;;-3.42;72.68;100354.84;5055315;28;20442;-76
2021/12/27 05:53:51;;;;;;;0.40;0.30;;;;;;;-3.38;71.87;100365.84;5055355;28;20442;-76
2021/12/27 05:56:17;;;;;;;0.40;0.30;;;;;;;-3.38;71.96;100363.19;5055060;28;20449;-76
2021/12/27 05:58:44;;;;;;;0.40;0.30;;;;;;;-3.37;72.88;100362.97;5054911;28;20941;-76
2021/12/27 06:01:10;;;;;;;0.40;0.30;;;;;;;-3.36;72.84;100367.25;5069823;28;21012;-76
2021/12/27 06:03:38;;;;;;;0.40;0.30;;;;;;;-3.36;74.04;100364.59;5075058;28;20554;-76
2021/12/27 06:06:05;;;;;;;0.40;0.30;;;;;;;-3.31;73.86;100354.19;5075391;28;20446;-76
2021/12/27 06:08:31;;;;;;;0.40;0.30;;;;;;;-3.26;73.83;100353.53;5074909;28;20457;-76
2021/12/27 06:10:57;;;;;;;0.40;0.30;;;;;;;-3.23;73.07;100344.31;5071870;28;20192;-76
2021/12/27 06:13:24;;;;;;;0.40;0.40;;;;;;;-3.24;73.72;100343.53;5054909;28;20442;-76
2021/12/27 06:15:50;;;;;;;0.40;0.30;;;;;;;-3.22;73.26;100338.03;5053790;28;20442;-76
2021/12/27 06:18:17;;;;;;;0.40;0.30;;;;;;;-3.20;74.05;100336.75;5073184;28;20469;-76
2021/12/27 06:20:45;;;;;;;0.40;0.30;;;;;;;-3.18;73.49;100339.22;5074630;28;20889;-76
2021/12/27 06:23:11;;;;;;;0.40;0.30;;;;;;;-3.13;72.73;100342.03;5074601;28;20441;-76
2021/12/27 06:25:38;;;;;;;0.40;0.30;;;;;;;-3.14;72.24;100332.47;5066835;28;20449;-76
2021/12/27 06:28:05;;;;;;;0.40;0.30;;;;;;;-3.13;73.51;100332.22;5054305;28;20455;-75
2021/12/27 06:30:31;;;;;;;0.40;0.30;;;;;;;-3.09;73.67;100329.97;5059063;28;20821;-76
2021/12/27 06:32:58;;;;;;;0.40;0.30;;;;;;;-3.00;72.93;100328.66;5074397;28;20445;-76
2021/12/27 06:35:24;;;;;;;0.40;0.30;;;;;;;-2.99;73.14;100324.97;5074269;28;20949;-76
2021/12/27 06:37:52;;;;;;;0.40;0.30;;;;;;;-3.03;73.37;100326.44;5074314;28;20852;-76
2021/12/27 06:40:19;;;;;;;0.40;0.30;;;;;;;-3.06;73.96;100311.78;5074261;28;20492;-76
2021/12/27 06:42:46;;;;;;;0.50;0.50;;;;;;;-3.01;73.47;100316.44;5059374;28;20454;-76
2021/12/27 06:45:13;;;;;;;0.40;0.30;;;;;;;-3.01;73.93;100316.44;5054265;28;20454;-76
2021/12/27 06:47:40;;;;;;;1.33;1.23;;;;;;;-2.96;74.45;100323.75;5054151;28;20465;-76
2021/12/27 06:50:09;;;;;;;0.40;0.30;;;;;;;-3.00;74.28;100325.19;5053852;28;20434;-76
2021/12/27 06:52:35;;;;;;;0.40;0.30;;;;;;;-2.99;74.09;100327.63;5054160;28;20445;-76
2021/12/27 06:55:04;;;;;;;0.40;0.30;;;;;;;-3.01;74.54;100329.69;5054172;28;20456;-76
2021/12/27 06:57:31;;;;;;;0.40;0.30;;;;;;;-2.91;73.74;100335.28;5071091;28;21005;-76
2021/12/27 06:59:57;;;;;;;15.10;14.10;;;;;;;-2.86;73.94;100335.44;5073838;28;20444;-76
2021/12/27 07:02:24;;;;;;;0.40;0.30;;;;;;;-2.81;74.62;100334.78;5073509;28;20445;-76
2021/12/27 07:04:51;;;;;;;0.40;0.30;;;;;;;-2.87;74.86;100323.22;5073916;28;20455;-75
2021/12/27 07:07:17;;;;;;;33.80;32.00;;;;;;;-2.78;75.08;100322.94;5073799;28;20466;-76
2021/12/27 07:09:43;;;;;;;0.40;0.30;;;;;;;-2.80;76.82;100318.66;5073770;28;20449;-75
2021/12/27 07:12:12;;;;;;;0.40;0.30;;;;;;;-2.71;77.46;100318.38;5073705;28;20449;-75
2021/12/27 07:14:38;;;;;;;0.40;0.30;;;;;;;-2.61;77.03;100324.00;5071650;28;20449;-76
2021/12/27 07:17:05;;;;;;;0.50;0.50;;;;;;;-2.54;76.75;100322.88;5066332;28;20469;-75
2021/12/27 07:19:31;;;;;;;2.63;2.53;;;;;;;-2.57;77.90;100330.44;5073438;28;20430;-75
2021/12/27 07:21:58;;;;;;;0.40;0.30;;;;;;;-2.58;78.74;100321.69;5073557;28;20844;-76
2021/12/27 07:24:24;;;;;;;2.70;2.50;;;;;;;-2.58;80.36;100315.59;5073627;28;20445;-75
2021/12/27 07:26:52;;;;;;;1.40;1.33;;;;;;;-2.54;81.50;100330.03;5073197;28;20469;-75
2021/12/27 07:29:21;;;;;;;0.40;0.30;;;;;;;-2.49;83.29;100332.00;5073236;28;20449;-75
2021/12/27 07:31:48;;;;;;;0.40;0.30;;;;;;;-2.44;83.68;100327.66;5061342;28;20449;-76
2021/12/27 07:34:17;;;;;;;0.40;0.30;;;;;;;-2.43;84.65;100331.13;5053539;28;20449;-75
2021/12/27 07:36:44;;;;;;;0.40;0.30;;;;;;;-2.38;85.05;100333.94;5053247;28;20473;-76
2021/12/27 07:39:10;;;;;;;0.40;0.30;;;;;;;-2.35;85.32;100326.31;5054532;28;20454;-76
2021/12/27 07:41:36;;;;;;;0.40;0.30;;;;;;;-2.31;85.57;100324.84;5053325;28;20491;-76
2021/12/27 07:44:04;;;;;;;6.10;5.80;;;;;;;-2.32;84.87;100323.22;5053446;28;20811;-76
2021/12/27 07:46:32;;;;;;;0.40;0.30;;;;;;;-2.30;85.10;100321.19;5065309;28;20453;-76
2021/12/27 07:48:58;;;;;;;0.40;0.30;;;;;;;-2.42;84.48;100320.28;5034569;28;20473;-77
2021/12/27 07:51:25;;;;;;;1.90;1.80;;;;;;;-2.45;83.75;100320.72;5042290;28;20973;-75
2021/12/27 07:53:51;;;;;;;0.40;0.30;;;;;;;-2.55;84.24;100312.50;5053364;28;20469;-75
2021/12/27 07:56:17;;;;;;;0.40;0.30;;;;;;;-2.48;84.24;100313.22;5064394;28;20456;-76
2021/12/27 07:58:44;;;;;;;0.40;0.30;;;;;;;-2.47;84.69;100317.50;5059012;28;20466;-76
2021/12/27 08:01:10;;;;;;;0.40;0.30;;;;;;;-2.47;84.47;100309.56;5063907;28;20488;-76
2021/12/27 08:03:38;;;;;;;0.40;0.30;;;;;;;-2.49;85.52;100319.56;5073198;28;20441;-75
2021/12/27 08:06:05;;;;;;;0.97;0.97;;;;;;;-2.47;86.91;100320.16;5072931;28;20430;-75
2021/12/27 08:08:31;;;;;;;0.40;0.30;;;;;;;-2.47;86.28;100306.91;5072765;28;20841;-75
2021/12/27 08:10:58;;;;;;;2.40;2.30;;;;;;;-2.41;85.96;100308.66;5073121;28;20456;-76
2021/12/27 08:13:24;;;;;;;0.40;0.30;;;;;;;-2.51;85.68;100302.25;5073097;28;20449;-75
2021/12/27 08:15:51;;;;;;;0.40;0.30;;;;;;;-2.45;86.17;100307.47;5072978;28;20460;-76
2021/12/27 08:18:19;;;;;;;0.40;0.30;;;;;;;-2.41;86.38;100303.34;5072689;28;20480;-75
2021/12/27 08:20:47;;;;;;;0.40;0.30;;;;;;;-2.38;85.86;100300.25;5072868;28;20473;-76
2021/12/27 08:23:14;;;;;;;0.40;0.30;;;;;;;-2.36;85.79;100305.34;5072702;28;20544;-76
2021/12/27 08:25:40;;;;;;;14.00;13.03;;;;;;;-2.34;86.07;100300.63;5073019;28;20453;-75
2021/12/27 08:28:07;;;;;;;2.30;2.20;;;;;;;-2.31;85.25;100300.97;5072740;28;20472;-76
2021/12/27 08:30:34;;;;;;;0.40;0.30;;;;;;;-2.24;84.89;100298.25;5055822;28;20458;-75
2021/12/27 08:33:00;;;;;;;0.40;0.30;;;;;;;-2.21;85.50;100300.47;5052564;28;20906;-75
2021/12/27 08:35:28;;;;;;;0.40;0.30;;;;;;;-2.11;85.46;100302.56;5052845;28;20446;-76
2021/12/27 08:37:55;;;;;;;0.40;0.30;;;;;;;-2.06;85.36;100294.75;5053285;28;20831;-76
2021/12/27 08:40:22;;;;;;;1.40;1.30;;;;;;;-2.04;85.16;100292.66;5076559;28;20453;-76
2021/12/27 08:42:49;;;;;;;0.40;0.30;;;;;;;-2.05;85.84;100291.84;5058360;28;20473;-76
2021/12/27 08:45:16;;;;;;;11.40;10.80;;;;;;;-1.96;85.58;100295.00;5056531;28;20453;-75
2021/12/27 08:47:43;;;;;;;0.40;0.40;;;;;;;-1.89;85.66;100285.13;5036466;28;20463;-76
2021/12/27 08:50:12;;;;;;;0.40;0.30;;;;;;;-1.93;84.52;100286.59;5050276;28;20460;-76
2021/12/27 08:52:39;;;;;;;1.13;1.13;;;;;;;-1.91;85.12;100289.03;5076338;28;20445;-76
2021/12/27 08:55:08;;;;;;;24.50;23.30;;;;;;;-1.81;84.50;100289.31;5071851;28;20476;-76
2021/12/27 08:57:35;;;;;;;0.40;0.30;;;;;;;-1.79;84.35;100287.22;5070380;28;20583;-76
2021/12/27 09:00:05;;;;;;;0.40;0.30;;;;;;;-1.76;84.15;100292.09;5066266;28;20453;-76
2021/12/27 09:02:32;;;;;;;0.40;0.30;;;;;;;-1.72;84.11;100295.09;5057728;28;20485;-75
2021/12/27 09:04:58;;;;;;;1.30;1.20;;;;;;;-1.67;84.48;100292.56;5075741;28;20457;-76
2021/12/27 09:07:29;;;;;;;0.40;0.40;;;;;;;-1.69;83.66;100286.66;5076710;28;20469;-76
2021/12/27 09:09:57;;;;;;;0.40;0.30;;;;;;;-1.68;83.82;100283.78;5074873;28;20433;-75
2021/12/27 09:12:25;;;;;;;0.40;0.30;;;;;;;-1.63;83.14;100288.44;5076557;28;20513;-75
2021/12/27 09:14:53;;;;;;;0.40;0.30;;;;;;;-1.58;83.37;100285.88;5072562;28;20438;-76
2021/12/27 09:17:19;;;;;;;0.40;0.30;;;;;;;-1.64;82.91;100284.13;5085829;22;20485;-70
2021/12/27 09:19:46;;;;;;;0.40;0.30;;;;;;;-1.53;83.21;100292.13;5068145;28;20978;-72
2021/12/27 09:22:13;;;;;;;0.40;0.30;;;;;;;-1.47;82.88;100287.75;5060199;28;20486;-69
2021/12/27 09:24:40;;;;;;;0.40;0.30;;;;;;;-1.38;83.05;100286.34;5071180;28;20540;-69
2021/12/27 09:27:06;;;;;;;0.40;0.30;;;;;;;-1.32;82.43;100296.09;5075296;28;20815;-69
2021/12/27 09:29:34;;;;;;;0.50;0.50;;;;;;;-1.31;82.16;100296.88;5075569;28;20441;-71
2021/12/27 09:32:01;;;;;;;0.40;0.30;;;;;;;-1.27;81.96;100288.22;5075139;28;20445;-71
2021/12/27 09:34:27;;;;;;;0.40;0.30;;;;;;;-1.18;81.86;100287.88;5074847;28;20469;-70
2021/12/27 09:36:54;;;;;;;0.40;0.30;;;;;;;-1.28;82.66;100285.81;5074969;28;20861;-71
2021/12/27 09:39:20;;;;;;;0.40;0.30;;;;;;;-1.24;82.54;100276.31;5074976;28;20946;-69
2021/12/27 09:41:47;;;;;;;0.50;0.50;;;;;;;-1.25;80.90;100273.91;5066269;28;21011;-71
2021/12/27 09:44:13;;;;;;;39.70;36.97;;;;;;;-1.23;81.56;100271.84;5055612;28;20457;-70
2021/12/27 09:46:41;;;;;;;14.60;13.90;;;;;;;-1.24;81.45;100264.88;5065484;28;20441;-71
2021/12/27 09:49:13;;;;;;;0.40;0.30;;;;;;;-1.16;81.25;100261.88;5074741;28;20450;-71
2021/12/27 09:51:40;;;;;;;0.40;0.30;;;;;;;-1.32;80.85;100261.56;5074626;28;20436;-71
2021/12/27 09:54:07;;;;;;;0.40;0.30;;;;;;;-1.28;81.79;100252.09;5074249;28;20507;-71
2021/12/27 09:56:34;;;;;;;22.77;20.93;;;;;;;-1.28;82.95;100259.25;5074250;28;20449;-71
2021/12/27 09:59:01;;;;;;;0.40;0.30;;;;;;;-1.18;82.49;100264.78;5063800;28;20515;-71
2021/12/27 10:01:27;;;;;;;21.23;19.20;;;;;;;-1.12;82.22;100255.06;5073863;28;21059;-71
2021/12/27 10:03:57;;;;;;;0.40;0.30;;;;;;;-1.07;82.25;100255.97;5074768;28;20473;-71
2021/12/27 10:06:25;;;;;;;0.40;0.40;;;;;;;-1.06;82.01;100264.78;5074271;28;20445;-70
2021/12/27 10:08:54;;;;;;;0.83;0.30;;;;;;;-1.00;82.02;100255.06;5074352;28;20449;-71
2021/12/27 10:11:23;;;;;;;3.83;3.60;;;;;;;-0.96;82.11;100251.72;5074246;28;20798;-71
2021/12/27 10:14:00;;;;;;;0.40;0.30;;;;;;;-0.87;82.44;100263.59;5074219;28;20837;-71
2021/12/27 10:16:28;;;;;;;0.40;0.30;;;;;;;-0.88;82.22;100258.53;5074508;28;20809;-70
2021/12/27 10:18:57;;;;;;;0.40;0.30;;;;;;;-0.79;81.61;100251.81;5073478;28;20458;-70
2021/12/27 10:21:24;;;;;;;0.40;0.30;;;;;;;-0.78;82.03;100240.94;5073674;28;20481;-71
2021/12/27 10:24:01;;;;;;;0.40;0.30;;;;;;;-0.82;81.61;100245.09;5074134;28;20452;-71
2021/12/27 10:26:29;;;;;;;0.40;0.30;;;;;;;-0.82;81.62;100231.81;5073426;28;20437;-71
2021/12/27 10:29:06;;;;;;;0.50;0.40;;;;;;;-0.85;81.37;100221.63;5073637;28;20445;-72
2021/12/27 10:31:50;;;;;;;0.40;0.30;;;;;;;-0.81;81.15;100228.09;5073387;28;20434;-72
2021/12/27 10:34:18;;;;;;;2.10;2.00;;;;;;;-0.77;80.85;100231.09;5034214;28;20495;-71
2021/12/27 10:37:08;;;;;;;0.40;0.30;;;;;;;-0.75;80.82;100229.03;5067978;28;20438;-71
2021/12/27 10:39:43;;;;;;;0.40;0.30;;;;;;;-0.67;81.48;100217.19;5073400;28;20441;-72
2021/12/27 10:42:11;;;;;;;0.40;0.30;;;;;;;-0.59;81.41;100217.63;5072533;28;20542;-70
2021/12/27 10:44:38;;;;;;;1.03;1.03;;;;;;;-0.45;80.83;100215.50;5073704;28;20494;-70
2021/12/27 10:47:22;;;;;;;0.40;0.30;;;;;;;-0.50;80.32;100215.41;5073431;28;20446;-70
2021/12/27 10:49:51;;;;;;;0.50;0.30;;;;;;;-0.45;79.92;100204.84;5073726;28;20492;-69
2021/12/27 10:52:17;;;;;;;7.90;7.40;;;;;;;-0.41;79.78;100199.88;5072983;28;20962;-72
2021/12/27 10:54:44;;;;;;;0.50;0.50;;;;;;;-0.35;79.69;100205.06;5073519;28;20519;-70
2021/12/27 10:57:11;;;;;;;0.40;0.30;;;;;;;-0.38;80.46;100197.56;5073171;28;20460;-70
2021/12/27 10:59:37;;;;;;;0.40;0.30;;;;;;;-0.33;80.10;100196.84;5073124;28;20444;-70
2021/12/27 11:02:14;;;;;;;0.40;0.30;;;;;;;-0.45;79.88;100204.06;5073139;28;20477;-70
2021/12/27 11:04:41;;;;;;;0.40;0.30;;;;;;;-0.52;80.70;100205.00;5072614;28;20457;-70
2021/12/27 11:07:09;;;;;;;1.63;1.53;;;;;;;-0.46;81.19;100195.28;5073475;28;20449;-70
2021/12/27 11:09:36;;;;;;;0.97;0.87;;;;;;;-0.39;81.29;100192.47;5073215;28;20846;-70
2021/12/27 11:12:03;;;;;;;0.40;0.30;;;;;;;-0.37;81.68;100185.06;5055883;28;20493;-70
2021/12/27 11:14:30;;;;;;;0.40;0.30;;;;;;;-0.32;81.83;100185.94;5072857;28;20472;-70
2021/12/27 11:16:56;;;;;;;0.50;0.50;;;;;;;-0.20;81.41;100188.56;5073272;28;20487;-70
2021/12/27 11:19:23;;;;;;;3.23;3.13;;;;;;;-0.30;81.54;100181.22;5072686;28;20437;-70
2021/12/27 11:21:50;;;;;;;7.23;6.83;;;;;;;-0.25;81.83;100172.50;5072767;28;20481;-70
2021/12/27 11:24:21;;;;;;;0.40;0.30;;;;;;;-0.16;80.74;100175.59;5069185;28;20462;-70
2021/12/27 11:26:48;;;;;;;0.40;0.30;;;;;;;-0.21;80.35;100181.63;5070318;28;20449;-70